Monday, November 20, 2017, 2:32 AM EST
Back to Local

KFVE, Northern Aroostook Regional

Location: Saint Agatha, ME, United States Lat: 47.283
Local Time: 2:32 AM EST ( 7:32 GMT) Lon: -68.3
Time Zone: US/Eastern Elev: 987 ft

Show me the last for .
Show Decoded

2017-11-20 01:53 METAR KFVE 200653Z AUTO 26017G25KT 10SM BKN034 BKN050 M04/M09 A2932 RMK AO2
                 SLP936 T10441094 =
2017-11-20 01:09 METAR KFVE 200609Z AUTO 26010G23KT 10SM SCT028 OVC037 M03/M08 A2930 RMK AO2
                 T10331078 =
2017-11-20 00:53 METAR KFVE 200553Z AUTO 28014G19KT 10SM BKN028 OVC036 M03/M08 A2929 RMK AO2
                 SLP926 60002 T10331078 10006 21033 52034 =
2017-11-19 23:53 METAR KFVE 200453Z AUTO 28010KT 10SM BKN023 BKN028 OVC037 M03/M07 A2925 RMK AO2
                 SLP914 T10281067 400331050 =
2017-11-19 23:17 METAR KFVE 200417Z AUTO 27016G21KT 10SM SCT029 OVC035 M03/M07 A2922 RMK AO2
                 T10281072 =
2017-11-19 22:53 METAR KFVE 200353Z AUTO 28013G24KT 10SM BKN027 OVC033 M03/M07 A2922 RMK AO2 PK
                 WND 28029/0301 SLP903 T10281072 =
2017-11-19 21:53 METAR KFVE 200253Z AUTO 28013G25KT 10SM OVC028 M02/M06 A2919 RMK AO2 PK WND
                 28028/0201 SLP891 60002 T10221061 51039 =
2017-11-19 20:53 METAR KFVE 200153Z AUTO 29017G26KT 10SM OVC020 M02/M04 A2915 RMK AO2 PK WND
                 28032/0059 SNE00B06E15 SLP879 P0000 T10171044 =
2017-11-19 20:03 METAR KFVE 200103Z AUTO 28019G32KT 9SM SCT005 BKN016 OVC020 M01/M03 A2911 RMK
                 AO2 PK WND 28032/0059 SNE00 P0000 T10061028 =
2017-11-19 19:58 METAR KFVE 200058Z AUTO 28021G25KT 2SM -SN BR BKN005 OVC016 M01/M02 A2910 RMK
                 AO2 P0000 T10061022 =
2017-11-19 19:53 METAR KFVE 200053Z AUTO 28017G25KT 3/4SM -SN BR BKN005 OVC014 M01/M02 A2911 RMK
                 AO2 SLP864 P0002 T10061017 =
2017-11-19 19:50 METAR KFVE 200050Z AUTO 28014G20KT 3/4SM -SN BR OVC005 M01/M01 A2910 RMK AO2
                 P0002 =
2017-11-19 19:45 METAR KFVE 200045Z AUTO 27014KT 1 1/2SM -SN BR OVC005 M01/M01 A2910 RMK AO2
                 P0001 T10061011 =
2017-11-19 19:36 METAR KFVE 200036Z AUTO 26012G20KT 1 1/2SM -SN BR OVC006 00/M01 A2909 RMK AO2
                 P0001 T00001011 =
2017-11-19 19:27 METAR KFVE 200027Z AUTO 26013G19KT 2SM -SN BR OVC006 00/M01 A2908 RMK AO2 P0000
                 T00001011 =
2017-11-19 19:19 METAR KFVE 200019Z AUTO 26012KT 1 1/2SM -SN BR SCT004 OVC008 00/M01 A2908 RMK
                 AO2 P0000 T00001011 =
2017-11-19 19:15 METAR KFVE 200015Z AUTO 25009G14KT 2 1/2SM -SN BR FEW004 OVC008 00/M01 A2908 RMK
                 AO2 CIG 006V013 P0000 T00001011 =
2017-11-19 18:53 METAR KFVE 192353Z AUTO 28012G18KT 8SM -SN OVC012 01/M01 A2907 RMK AO2 SNB44
                 SLP849 P0000 60030 T00061011 10033 20006 53042 =
2017-11-19 18:01 METAR KFVE 192301Z AUTO 28013G20KT 10SM BKN011 OVC060 01/00 A2903 RMK AO2 CIG
                 007V013 PRESRR T00110000 =
2017-11-19 17:53 METAR KFVE 192253Z AUTO 28014G27KT 10SM SCT010 OVC060 02/00 A2902 RMK AO2 PK WND
                 29028/2228 RAB2156E05UPB31E41 PRESRR SLP833 P0001 T00170000 =
2017-11-19 17:42 METAR KFVE 192242Z AUTO 28018G25KT 10SM FEW007 SCT017 OVC060 02/00 A2900 RMK AO2
                 PK WND 29028/2228 RAB2156E05UPB31E41 P0001 T00170000 =
2017-11-19 17:33 METAR KFVE 192233Z AUTO 29021G28KT 10SM UP SCT006 BKN017 OVC060 02/00 A2899 RMK
                 AO2 PK WND 29028/2228 RAB2156E05UPB31 P0001 T00220000 =
2017-11-19 16:53 METAR KFVE 192153Z AUTO 27012KT 10SM OVC006 03/02 A2896 RMK AO2 RAB2056E20 CIG
                 004V008 SLP815 P0000 T00280022 =
2017-11-19 16:09 METAR KFVE 192109Z AUTO 27007KT 3SM -RA BR OVC008 03/02 A2895 RMK AO2 RAB2056
                 CIG 004V012 P0000 T00280022 =
2017-11-19 16:05 METAR KFVE 192105Z AUTO 28006KT 2SM -RA BR OVC010 03/02 A2895 RMK AO2 RAB2056
                 CIG 007V013 P0000 T00280017 =
2017-11-19 15:53 METAR KFVE 192053Z AUTO VRB03KT 1 3/4SM BR BKN010 OVC014 03/02 A2894 RMK AO2 VIS
                 1V5 RAE17 CIG 008V012 SLP807 P0002 60029 T00280022 55003 =
2017-11-19 15:50 METAR KFVE 192050Z AUTO VRB03KT 1 3/4SM BR OVC012 03/02 A2894 RMK AO2 VIS 1V5
                 RAE17 P0002 =
2017-11-19 15:38 METAR KFVE 192038Z AUTO 00000KT 10SM OVC014 03/02 A2893 RMK AO2 RAE17 P0002
                 T00280022 =
2017-11-19 15:00 METAR KFVE 192000Z AUTO 03005KT 3SM RA BR SCT008 BKN018 OVC045 03/02 A2892 RMK
                 AO2 P0002 T00280022 =
2017-11-19 14:53 METAR KFVE 191953Z AUTO 4SM RA BR FEW005 OVC011 03/02 A2894 RMK AO2 SLP806 P0010
                 T00280022 =
2017-11-19 14:50 METAR KFVE 191950Z AUTO VRB04KT 5SM RA BR OVC009 03/02 A2893 RMK AO2 P0008 =
2017-11-19 14:32 METAR KFVE 191932Z AUTO 06005KT 4SM -RA BR FEW006 OVC011 03/02 A2892 RMK AO2
                 P0005 T00280022 =
2017-11-19 13:53 METAR KFVE 191853Z AUTO VRB03KT 3SM -RA BR OVC007 03/02 A2895 RMK AO2 SLP810
                 P0017 T00280022 =
2017-11-19 13:50 METAR KFVE 191850Z AUTO 05003KT 2 1/2SM RA BR OVC007 03/02 A2894 RMK AO2 P0016 =
2017-11-19 13:48 METAR KFVE 191848Z AUTO 05004KT 1 3/4SM RA BR OVC005 03/02 A2895 RMK AO2 P0016 =
2017-11-19 13:41 METAR KFVE 191841Z AUTO 09005KT 1SM +RA BR VV005 03/02 A2895 RMK AO2 P0013
                 T00280022 =
2017-11-19 12:53 METAR KFVE 191753Z AUTO 10010KT 1/4SM RA FG VV003 02/02 A2897 RMK AO2 SLP819
                 P0005 60028 I6000 T00220017 10022 20000 56048 =
2017-11-19 12:38 METAR KFVE 191738Z AUTO 10010KT 1/2SM -RA FG VV003 02/02 A2898 RMK AO2 P0004
                 T00220017 =
2017-11-19 12:29 METAR KFVE 191729Z AUTO 10012G18KT 1 1/4SM -RA BR OVC003 02/02 A2898 RMK AO2
                 P0003 T00220017 =
2017-11-19 12:24 METAR KFVE 191724Z AUTO 11012G18KT 1 3/4SM -RA BR OVC003 02/02 A2899 RMK AO2 VIS
                 1V2 1/2 P0003 T00220017 =
2017-11-19 12:14 METAR KFVE 191714Z AUTO 11011KT 1 1/2SM RA BR OVC003 02/02 A2899 RMK AO2 P0002
                 T00220017 =
2017-11-19 12:02 METAR KFVE 191702Z AUTO 09012G19KT 1/2SM -RA FG VV003 02/02 A2900 RMK AO2 P0001
                 T00220017 =
2017-11-19 11:53 METAR KFVE 191653Z AUTO 10012G19KT 1SM -RA BR VV003 02/02 A2901 RMK AO2
                 UPB00E17RAB17 SLP832 P0001 T00220017 =
2017-11-19 11:40 METAR KFVE 191640Z AUTO 10012KT 1SM -RA BR VV003 02/01 A2903 RMK AO2
                 UPB00E17RAB17 P0000 T00170011 =
2017-11-19 11:06 METAR KFVE 191606Z AUTO 11013KT 3/4SM UP BR VV003 02/01 A2905 RMK AO2 UPB00
                 PRESFR P0000 T00170011 =
2017-11-19 10:53 METAR KFVE 191553Z AUTO 12013KT 1 1/4SM BR OVC003 02/01 A2907 RMK AO2 VIS 1/2V3
                 RAE47UPB47E50 SLP854 P0000 T00170011 =
2017-11-19 10:32 METAR KFVE 191532Z AUTO 11013G19KT 2 1/2SM -RA BR OVC003 02/01 A2909 RMK AO2
                 P0000 T00170011 =
2017-11-19 09:53 METAR KFVE 191453Z AUTO 10012KT 3SM -RA BR OVC003 01/01 A2912 RMK AO2 PRESFR
                 SLP869 P0004 60022 I3000 T00110006 58041 =
2017-11-19 09:45 METAR KFVE 191445Z AUTO 10012KT 2 1/2SM -RA BR OVC003 01/01 A2913 RMK AO2 P0003
                 T00110006 =
2017-11-19 09:32 METAR KFVE 191432Z AUTO 10009KT 1 3/4SM -RA BR OVC003 01/00 A2914 RMK AO2 P0002
                 T00060000 =
2017-11-19 08:53 METAR KFVE 191353Z AUTO 10012G20KT 4SM RA BR OVC003 01/00 A2917 RMK AO2
                 UPE05RAB05 CIG 002V007 SLP886 P0009 T00060000 =
2017-11-19 07:53 METAR KFVE 191253Z AUTO 10013G21KT 4SM UP BR OVC003 00/M01 A2922 RMK AO2
                 UPB1157FZRAE1157 SLP905 P0009 I1000 T00001006 =
2017-11-19 07:03 METAR KFVE 191203Z AUTO 11014G22KT 8SM UP OVC002 00/M01 A2925 RMK AO2
                 UPB1157FZRAE1157 P0000 I1000 T00001006 =
2017-11-19 06:53 METAR KFVE 191153Z AUTO 11014G21KT 6SM -FZRA BR OVC002 00/M01 A2924 RMK AO2
                 SLP913 P0004 60010 70010 I1005 I6018 T00001006 10000 21044 58035 =
2017-11-19 06:30 METAR KFVE 191130Z AUTO 11011G22KT 6SM -FZRA BR OVC002 00/M01 A2926 RMK AO2
                 P0004 I1004 T00001011 =
2017-11-19 06:18 METAR KFVE 191118Z AUTO 11016G21KT 5SM FZRA BR OVC002 00/M01 A2927 RMK AO2 P0003
                 I1003 T00001011 =
2017-11-19 06:02 METAR KFVE 191102Z AUTO 11013KT 5SM -FZRA BR OVC002 M01/M01 A2929 RMK AO2 P0001
                 I1001 T10061011 =
2017-11-19 05:53 METAR KFVE 191053Z AUTO 10012KT 3SM FZRA BR OVC002 M01/M01 A2930 RMK AO2 SLP932
                 P0004 I1007 T10061011 =
2017-11-19 05:46 METAR KFVE 191046Z AUTO 11012G19KT 3SM FZRA BR OVC003 M01/M01 A2931 RMK AO2
                 P0003 I1007 T10061011 =
2017-11-19 04:53 METAR KFVE 190953Z AUTO 09011KT 5SM -FZRA BR OVC003 M02/M03 A2935 RMK AO2 CIG
                 002V009 SLP949 P0000 I1004 T10221028 =
2017-11-19 04:49 METAR KFVE 190949Z AUTO 10010KT 4SM -FZRA BR BKN003 OVC007 M02/M03 A2935 RMK AO2
                 CIG 002V006 P0000 I1004 =
2017-11-19 03:53 METAR KFVE 190853Z AUTO 09011KT 7SM -FZRA OVC007 M03/M04 A2940 RMK AO2
                 UPB22E49FZRAE0755B49SNB0755E22 CIG 003V009 SLP967 P0002 60002 I1001 I3002
                 T10281039 58042 =
2017-11-19 03:43 METAR KFVE 190843Z AUTO 08010KT 10SM UP OVC005 M03/M04 A2941 RMK AO2
                 UPB22FZRAE0755SNB0755E22 CIG 003V008 P0001 I1000 T10331039 =
2017-11-19 03:01 METAR KFVE 190801Z AUTO 09009KT 6SM -SN BR OVC008 M04/M05 A2944 RMK AO2
                 FZRAE0755SNB0755 PRESFR P0000 I1000 T10391050 =
2017-11-19 02:53 METAR KFVE 190753Z AUTO 09009KT 10SM -FZRA OVC008 M04/M05 A2945 RMK AO2
                 UPB23E27FZRAB27 SLP985 P0000 I1001 T10391050 =

Support USWX by starting your Amazon purchase here.